Terminal Aerodrome Forecast
Issued by NWS

Home | Current Version | Previous Version | Graphics & Text | Print | Product List | Glossary On
Versions: 1 2 3 4 5 6 7 8 9 10 11 12 13 14 15 16 17 18 19 20 21 22 23 24
421
FTUS43 KMPX 210520
TAFRNH
TAF
KRNH 210520Z 2106/2206 17012KT P6SM SCT025 BKN035
      TEMPO 2106/2109 BKN020
     FM210900 17008KT P6SM VCTS BKN025CB
     FM211400 22010KT P6SM SCT120 BKN250
     FM220200 VRB03KT P6SM SCT250=

USA.gov is the U.S. government's official web portal to all federal, state and local government web resources and services.